Report METAR

 


LIBF - Foggia/Gino Lisa, Italy
Distance from station: NE 23km
Dati ricevuti: 12/07/2024 11:50
Sereno
Sereno
 Vento da SSE
Vento: SSE 11 km/h
Temperatura: 38°C
P.to Rugiada: 15°C
Umidità: 25%
Barometro: 1011 hPa
Summary: Sereno
Visibility: superiore a 10 km
2024/07/12 09:50 LIBF 120950Z 15006KT 090V210 CAVOK 38/15 Q1011
LIRT - Trevico, Italy
Distance from station: SSO 28km
Dati ricevuti: 12/07/2024 11:55
Sereno
Sereno
 Vento da O
Vento: O 11 km/h
Temperatura: 27°C
Indice di Calore: 27°C
P.to Rugiada: 15°C
Umidità: 48%
Barometro: 1020 hPa
Summary: Sereno
Visibility: superiore a 10 km
2024/07/12 09:55 LIRT 120955Z 27006KT 240V330 CAVOK 27/15 Q1020
LIBA - Amendola (it-Afb, Italy
Distance from station: NE 42km
Dati ricevuti: 12/07/2024 11:55
Sereno
Sereno
 Vento da SE
Vento: SE 11 km/h
Temperatura: 37°C
P.to Rugiada: 17°C
Umidità: 31%
Barometro: 1011 hPa
Summary: Sereno
Visibility: superiore a 10 km
2024/07/12 09:55 LIBA 120955Z 13006KT CAVOK 37/17 Q1011
 
LIRI - Pontecagnano (af, Italy
Distance from station: SSO 81km
Dati ricevuti: 12/07/2024 11:50
Sereno
Sereno
 Vento da OSO
Vento: OSO 13 km/h
Temperatura: 30°C
Indice di Calore: 33°C
P.to Rugiada: 21°C
Umidità: 59%
Barometro: 1013 hPa
Summary: Sereno
Visibility: superiore a 10 km
2024/07/12 09:50 LIRI 120950Z 24007KT 210V270 CAVOK 30/21 Q1013
LIRN - Naples/Capodichi, Italy
Distance from station: OSO 96km
Dati ricevuti: 12/07/2024 11:50
Sereno
Sereno
 Vento da SSO
Vento: SSO 13 km/h
Temperatura: 31°C
Indice di Calore: 33°C
P.to Rugiada: 20°C
Umidità: 52%
Barometro: 1014 hPa
Summary: Sereno
Visibility: superiore a 10 km
2024/07/12 09:50 LIRN 120950Z 20007KT 160V230 CAVOK 31/20 Q1014 NOSIG
LIRM - Grazzanise (it-A, Italy
Distance from station: OSO 109km
Dati ricevuti: 12/07/2024 11:55
Sereno
Sereno
 Vento da SSO
Vento: SSO 9 km/h
Temperatura: 33°C
Indice di Calore: 43°C
P.to Rugiada: 27°C
Umidità: 71%
Barometro: 1013 hPa
Summary: Sereno
Visibility: superiore a 10 km
2024/07/12 09:55 LIRM 120955Z 20005KT CAVOK 33/27 Q1013
 
LIBD - Bari/Palese Macc, Italy
Distance from station: E 121km
Dati ricevuti: 12/07/2024 11:50
Sereno
Sereno
 Vento da NE
Vento: NE 11 km/h
Temperatura: 33°C
P.to Rugiada: 16°C
Umidità: 36%
Barometro: 1012 hPa
Summary: Sereno
Visibility: superiore a 10 km
2024/07/12 09:50 LIBD 120950Z 05006KT 360V080 CAVOK 33/16 Q1012
LIQC - Capri Island, Italy
Distance from station: SO 124km
Dati ricevuti: 12/07/2024 11:55
Sereno
Sereno
 Vento da calmo
Vento: Calma
Temperatura: 29°C
Indice di Calore: 32°C
P.to Rugiada: 23°C
Umidità: 70%
Barometro: 1015 hPa
Summary: Sereno
Visibility: superiore a 10 km
2024/07/12 09:55 LIQC 120955Z 00000KT CAVOK 29/23 Q1015 RMK SKC QUK 1 QUL 0 VIS MAR 20 KM VIS MIN 9999
LIBV - Gioia Del Colle, Italy
Distance from station: ESE 144km
Dati ricevuti: 12/07/2024 11:55
Nubi sparse
Nubi sparse
 Vento da N
Vento: N 13 km/h
Temperatura: 35°C
P.to Rugiada: 15°C
Umidità: 30%
Barometro: 1014 hPa
Nuvole: Nubi sparse
Visibility: 10 km
Cloud details: Nubi sparse 1219 m
2024/07/12 09:55 LIBV 120955Z 35007KT 9999 FEW040 35/15 Q1014
 
LIBP - Pescara, Italy
Distance from station: NO 159km
Dati ricevuti: 12/07/2024 11:50
Sereno
Sereno
 Vento da ENE
Vento: ENE 17 km/h
Temperatura: 34°C
Indice di Calore: 36°C
P.to Rugiada: 19°C
Umidità: 41%
Barometro: 1011 hPa
Nuvole: Sereno
Visibility: 10 km
2024/07/12 09:50 LIBP 120950Z AUTO 07009KT 9999 NCD 34/19 Q1011
LIBH - Marina Di Ginosa, Italy
Distance from station: SE 160km
Dati ricevuti: 12/07/2024 11:55
Sereno
Sereno
 Vento da S
Vento: S 13 km/h
Temperatura: 33°C
Indice di Calore: 38°C
P.to Rugiada: 23°C
Umidità: 56%
Barometro: 1011 hPa
Summary: Sereno
Visibility: superiore a 10 km
2024/07/12 09:55 LIBH 120955Z 19007KT CAVOK 33/23 Q1011 RMK SKC QUK 1 QUL 0 VIS MAR 20 KM VIS MIN 9999
LIRH - Frosinone (it-Af, Italy
Distance from station: ONO 174km
Dati ricevuti: 12/07/2024 11:55
Sereno
Sereno
 Vento da SE
Vento: SE 4 km/h
Temperatura: 32°C
Indice di Calore: 33°C
P.to Rugiada: 18°C
Umidità: 43%
Barometro: 1014 hPa
Summary: Sereno
Visibility: superiore a 10 km
2024/07/12 09:55 LIRH 120955Z 13002KT CAVOK 32/18 Q1014
 
LIBG - Grottaglie(Civ/A, Italy
Distance from station: ESE 192km
Dati ricevuti: 12/07/2024 11:50
Sereno
Sereno
 Vento da SSO
Vento: SSO 15 km/h
Temperatura: 36°C
P.to Rugiada: 18°C
Umidità: 34%
Barometro: 1011 hPa
Summary: Sereno
Visibility: superiore a 10 km
2024/07/12 09:50 LIBG 120950Z 21008KT 180V240 CAVOK 36/18 Q1011
LIRL - Latina (it-Afb), Italy
Distance from station: O 205km
Dati ricevuti: 12/07/2024 11:55
Sereno
Sereno
 Vento da Variabile
Vento: Variabile 0 km/h
Temperatura: 33°C
Indice di Calore: 42°C
P.to Rugiada: 26°C
Umidità: 67%
Barometro: 1013 hPa
Summary: Sereno
Visibility: superiore a 10 km
2024/07/12 09:55 LIRL 120955Z /////KT CAVOK 33/26 Q1013
LIBR - Brindisi/Casale, Italy
Distance from station: ESE 231km
Dati ricevuti: 12/07/2024 11:50
Sereno
Sereno
 Vento da NNE
Vento: NNE 13 km/h
Temperatura: 30°C
Indice di Calore: 33°C
P.to Rugiada: 21°C
Umidità: 59%
Barometro: 1012 hPa
Summary: Sereno
Visibility: superiore a 10 km
2024/07/12 09:50 LIBR 120950Z 03007KT CAVOK 30/21 Q1012
 
LIRG - Guidonia (it-Afb, Italy
Distance from station: ONO 232km
Dati ricevuti: 12/07/2024 11:55
Sereno
Sereno
 Vento da SSO
Vento: SSO 6 km/h
Temperatura: 34°C
P.to Rugiada: 18°C
Umidità: 39%
Barometro: 1014 hPa
Summary: Sereno
Visibility: superiore a 10 km
2024/07/12 09:55 LIRG 120955Z 21003KT CAVOK 34/18 Q1014
LIBQ - Scuro Mountain, Italy
Distance from station: SSE 235km
Dati ricevuti: 12/07/2024 11:55
Nubi sparse
Nubi sparse
 Vento da OSO
Vento: OSO 7 km/h
Temperatura: 25°C
P.to Rugiada: 13°C
Umidità: 47%
Barometro: 1025 hPa
Nuvole: Nubi sparse
Visibility: 10 km
Cloud details: Nubi sparse 152 m
2024/07/12 09:55 LIBQ 120955Z 25004KT 9999 FEW005 25/13 Q1025
LIRA - Ciampino(It-Afb/, Italy
Distance from station: ONO 236km
Dati ricevuti: 12/07/2024 11:50
Sereno
Sereno
 Vento da S
Vento: S 11 km/h
Temperatura: 33°C
P.to Rugiada: 17°C
Umidità: 38%
Barometro: 1014 hPa
Summary: Sereno
Visibility: superiore a 10 km
2024/07/12 09:50 LIRA 120950Z 18006KT 130V240 CAVOK 33/17 Q1014
 
LIQN - Rieti, Italy
Distance from station: ONO 243km
Dati ricevuti: 12/07/2024 11:50
Sereno
Sereno
 Vento da Variabile
Vento: Variabile 9 km/h
Temperatura: 33°C
P.to Rugiada: 11°C
Umidità: 26%
Barometro: 1015 hPa
Summary: Sereno
Visibility: superiore a 10 km
2024/07/12 09:50 LIQN 120950Z VRB05KT CAVOK 33/11 Q1015
LIRE - Pratica Di Mare(, Italy
Distance from station: O 246km
Dati ricevuti: 12/07/2024 11:55
Sereno
Sereno
 Vento da S
Vento: S 19 km/h
Temperatura: 28°C
Indice di Calore: 30°C
P.to Rugiada: 21°C
Umidità: 66%
Barometro: 1013 hPa
Summary: Sereno
Visibility: superiore a 10 km
2024/07/12 09:55 LIRE 120955Z 19010KT CAVOK 28/21 Q1013